Saturday, November 29, 2014
06:14 UTC
  |  Log In   |  Register Free
Airport Search:

Richmond Municipal Airport
(KRID)

Richmond Municipal Airport Diagram
No Airport Diagram Available

FAA data valid effective November 13, 2014 - January 08, 2015 (unless otherwise noted).

 
 
 
 
 
 
 
 
 
 
 
 
 
 

Current Aviation Weather for Richmond Municipal Airport (KRID)

METAR data is unavailable for RID. The nearest METAR location is at KMWO (24.7 nm SE from RID).

The most recent METAR observation for KMWO was updated at: 0530
METAR Summary (Translated METAR)
KMWO
290515Z AUTO 00000KT 10SM CLR 01/M08 A3011 RMK AO2 T00121079
(24.7 nm SE from KRID)
KHAO
290453Z AUTO 14003KT 10SM CLR 01/M08 A3010 RMK AO2 SLP198 T00111078 400281044
(27.9 nm SE from KRID)
TAF Summary (Translated TAF)
KDAY
(23.7 nm NE from KMWO)
281730Z 2818/2918 20010KT P6SM BKN080 FM290000 18010KT P6SM SCT100 FM291200 19012KT P6SM BKN040 FM291600 19012G22KT P6SM OVC025
  Airport Weather Conditions for KRID

Current weather conditions are
not available for RID


The nearest NOAA weather station
is at MWO, (24.7 nm SE from RID)
  
 Current Weather at MWO
34° F
Fair
Southeast winds at 4.6 mph
MWO NOAA Radar

Pressure: 30.11 in
Humidity: 51%
Wind: Southeast at 4.6 MPH (4 KT)
Dew Point: 17.6°F
Visibility: 10.00 mi


Airport Weather Forecast for KRID

Translated METAR and TAF for KMWO
Translated METAR for KMWO (0609 UTC 29 November 2014)
found at http://aviationweather.gov/adds/metars/
 
METAR text: KMWO 290555Z AUTO 00000KT 10SM CLR 01/M07 A3008 RMK AO2 T00121073 10018 20012
Conditions at: KMWO (MIDDLETOWN/HOOK , OH, US) observed 0555 UTC 29 November 2014
Temperature: 1.2°C (34°F)
Dewpoint: -7.3°C (19°F) [RH = 53%]
Pressure (altimeter): 30.08 inches Hg (1018.7 mb)
Winds: calm
Visibility: 10 or more miles (16+ km)
Ceiling: at least 12,000 feet AGL
Clouds: sky clear below 12,000 feet AGL
Weather: automated observation with no human augmentation;
there may or may not be significant weather present at this time
Translated TAF for KMWO

There is no translated TAF available for this airport

Find All Airport Services Find A Hotel Find A Rental Car Find A Golf Course Find A Restaurant $100 Hamburger



FBO's on the Field
FBO Company Facility Photos Services Transportation Aviation Fuel Prices: Prices include tax
Catering Weather Repair Courtesy Rental Type 100LL JetA JetA+ MOGAS 8087
 
Richmond Municipal Airport

Currently rated 5 by 1 person
FS:Phillips 66
Last Updated: Nov-10
Login to update fuel prices
SS:
Contact Richmond Municipal AirportMore FBO Information
 
Add another FBO Facility Photos Catering Weather Repair Courtesy Rental Type 100LL JetA JetA+ MOGAS 8087
Services Transportation Aviation Fuel Prices: Prices include tax


model-print
model-print
model-print
model-print